Time;durP1;ratioP1;P1;durP2;ratioP2;P2;SDS_P1;SDS_P2;PMS_P1;PMS_P2;Temp;Humidity;BMP_temperature;BMP_pressure;BME280_temperature;BME280_humidity;BME280_pressure;Samples;Min_cycle;Max_cycle;Signal;HPM_P1;HPM_P2
2023/10/03 00:01:35;;;;;;;3.90;1.98;;;17.60;99.90;;;;;;5069988;28;20024;-52
2023/10/03 00:04:02;;;;;;;6.45;2.35;;;17.70;99.90;;;;;;5069974;28;20412;-55
2023/10/03 00:06:28;;;;;;;4.30;2.33;;;17.70;99.90;;;;;;5069897;28;20422;-55
2023/10/03 00:08:54;;;;;;;10.88;2.42;;;17.70;99.90;;;;;;5069971;28;20108;-44
2023/10/03 00:11:21;;;;;;;6.28;2.70;;;17.70;99.90;;;;;;5069285;28;20035;-50
2023/10/03 00:13:47;;;;;;;5.65;2.50;;;17.80;99.90;;;;;;5073548;28;20403;-47
2023/10/03 00:16:13;;;;;;;7.10;2.20;;;17.70;99.90;;;;;;5073310;28;20618;-57
2023/10/03 00:18:39;;;;;;;7.20;2.47;;;17.80;99.90;;;;;;5073428;28;20211;-52
2023/10/03 00:21:04;;;;;;;7.20;2.60;;;17.80;99.90;;;;;;5073589;28;20129;-42
2023/10/03 00:23:32;;;;;;;3.47;2.05;;;17.80;99.90;;;;;;5073470;28;20024;-42
2023/10/03 00:25:59;;;;;;;7.07;2.30;;;17.80;99.90;;;;;;5073392;28;20025;-43
2023/10/03 00:28:30;;;;;;;5.50;2.05;;;18.80;99.90;;;;;;5073162;28;20082;-42
2023/10/03 00:30:56;;;;;;;6.47;2.35;;;17.80;99.90;;;;;;5073250;28;20024;-43
2023/10/03 00:33:25;;;;;;;10.13;3.13;;;17.90;99.90;;;;;;5072937;28;20536;-41
2023/10/03 00:35:52;;;;;;;5.05;2.05;;;17.90;99.90;;;;;;5073460;28;20169;-42
2023/10/03 00:38:17;;;;;;;5.55;2.22;;;17.90;99.90;;;;;;5073156;28;20038;-42
2023/10/03 00:40:52;;;;;;;9.23;2.63;;;17.90;99.90;;;;;;5073185;28;20099;-46
2023/10/03 00:43:18;;;;;;;5.43;1.92;;;17.90;99.90;;;;;;5072864;28;20485;-50
2023/10/03 00:45:45;;;;;;;6.97;2.33;;;17.90;99.90;;;;;;5072637;28;20039;-59
2023/10/03 00:48:12;;;;;;;5.88;2.20;;;17.90;99.90;;;;;;5073040;28;20170;-58
2023/10/03 00:50:40;;;;;;;8.45;2.58;;;17.90;99.90;;;;;;5072751;28;20070;-58
2023/10/03 00:53:08;;;;;;;3.90;2.17;;;16.30;99.90;;;;;;5073017;28;20020;-57
2023/10/03 00:55:37;;;;;;;6.53;2.65;;;18.80;99.90;;;;;;5072706;28;20074;-56
2023/10/03 00:58:07;;;;;;;5.68;2.40;;;17.90;99.90;;;;;;5072799;28;20036;-42
2023/10/03 01:00:43;;;;;;;3.53;1.98;;;17.90;99.90;;;;;;5072599;28;20017;-43
2023/10/03 01:03:37;;;;;;;8.07;2.25;;;17.90;99.90;;;;;;5059721;28;20098;-44
2023/10/03 01:06:08;;;;;;;3.50;2.08;;;17.80;99.90;;;;;;5072535;28;20024;-42
2023/10/03 01:08:39;;;;;;;6.85;1.90;;;17.90;99.90;;;;;;5072295;28;20177;-41
2023/10/03 01:11:07;;;;;;;3.50;1.77;;;17.80;99.90;;;;;;5072353;28;20016;-41
2023/10/03 01:13:34;;;;;;;4.03;1.55;;;17.80;99.90;;;;;;5072483;28;20017;-42
2023/10/03 01:16:00;;;;;;;5.13;1.50;;;17.70;99.90;;;;;;5072252;28;20540;-42
2023/10/03 01:18:29;;;;;;;6.05;1.98;;;17.70;99.90;;;;;;5072345;28;20096;-53
2023/10/03 01:20:55;;;;;;;2.15;1.33;;;17.60;99.90;;;;;;5072426;28;20028;-49
2023/10/03 01:23:21;;;;;;;3.85;1.55;;;17.50;99.90;;;;;;5071228;28;20024;-49
2023/10/03 01:25:48;;;;;;;4.00;1.60;;;17.40;99.90;;;;;;5070977;28;20063;-51
2023/10/03 01:28:15;;;;;;;3.70;1.63;;;17.40;99.90;;;;;;5072153;28;20037;-56
2023/10/03 01:30:41;;;;;;;2.67;1.42;;;17.30;99.90;;;;;;5072096;28;20016;-43
2023/10/03 01:33:08;;;;;;;4.47;1.70;;;17.30;99.90;;;;;;5071977;28;20105;-55
2023/10/03 01:35:34;;;;;;;5.70;1.67;;;17.30;99.90;;;;;;5072437;28;20017;-46
2023/10/03 01:38:00;;;;;;;3.10;1.58;;;17.30;99.90;;;;;;5073080;28;20089;-45
2023/10/03 01:40:26;;;;;;;5.00;1.58;;;17.30;99.90;;;;;;5072737;28;20149;-46
2023/10/03 01:42:52;;;;;;;5.20;1.55;;;17.30;99.90;;;;;;5072682;28;20025;-47
2023/10/03 01:45:22;;;;;;;2.85;1.50;;;17.30;99.90;;;;;;5071856;28;20031;-44
2023/10/03 01:47:50;;;;;;;3.47;1.48;;;17.20;99.90;;;;;;5071809;28;20025;-43
2023/10/03 01:50:17;;;;;;;6.97;1.98;;;17.20;99.90;;;;;;5071623;28;20115;-44
2023/10/03 01:52:43;;;;;;;4.68;1.70;;;17.30;99.90;;;;;;5071508;28;20024;-41
2023/10/03 01:55:13;;;;;;;3.67;1.60;;;17.30;99.90;;;;;;5071504;28;20031;-55
2023/10/03 01:57:40;;;;;;;5.18;1.88;;;18.20;99.90;;;;;;5071391;28;20107;-56
2023/10/03 02:00:20;;;;;;;5.22;1.55;;;17.30;99.90;;;;;;5071383;28;20562;-49
2023/10/03 02:02:46;;;;;;;3.35;1.45;;;15.80;99.90;;;;;;5071060;28;20040;-54
2023/10/03 02:05:14;;;;;;;4.63;1.80;;;17.30;99.90;;;;;;5071431;28;20071;-59
2023/10/03 02:07:41;;;;;;;3.33;1.60;;;16.70;99.90;;;;;;5071257;28;20040;-53
2023/10/03 02:10:07;;;;;;;7.90;1.58;;;17.30;99.90;;;;;;5071574;28;20263;-54
2023/10/03 02:12:33;;;;;;;3.05;1.25;;;17.20;99.90;;;;;;5071020;28;20414;-43
2023/10/03 02:15:07;;;;;;;5.32;1.33;;;17.10;99.90;;;;;;5071044;28;20048;-43
2023/10/03 02:17:34;;;;;;;1.48;0.98;;;17.00;99.90;;;;;;5070885;28;20036;-42
2023/10/03 02:20:00;;;;;;;2.47;0.75;;;17.00;99.90;;;;;;5071010;28;20035;-42
2023/10/03 02:22:26;;;;;;;1.60;1.08;;;17.00;99.90;;;;;;5071083;28;20020;-42
2023/10/03 02:24:52;;;;;;;0.73;0.70;;;16.90;99.90;;;;;;5070828;28;20539;-43
2023/10/03 02:27:17;;;;;;;1.17;0.70;;;16.80;99.90;;;;;;5070937;28;20032;-46
2023/10/03 02:29:44;;;;;;;1.02;0.70;;;16.80;99.90;;;;;;5070785;28;20024;-56
2023/10/03 02:32:11;;;;;;;2.33;0.80;;;16.70;99.90;;;;;;5071011;28;20057;-61
2023/10/03 02:34:37;;;;;;;1.55;0.80;;;16.60;99.90;;;;;;5070765;28;20033;-57
2023/10/03 02:37:04;;;;;;;1.13;0.75;;;19.30;99.90;;;;;;5070804;28;20490;-53
2023/10/03 02:39:36;;;;;;;2.13;0.73;;;16.40;99.90;;;;;;5070925;28;20024;-56
2023/10/03 02:42:09;;;;;;;1.58;0.70;;;16.30;99.90;;;;;;5070638;28;20032;-60
2023/10/03 02:44:36;;;;;;;1.42;0.90;;;16.30;99.90;;;;;;5070690;28;20039;-47
2023/10/03 02:47:04;;;;;;;1.67;0.90;;;15.30;99.90;;;;;;5070484;28;20103;-48
2023/10/03 02:49:30;;;;;;;2.88;0.82;;;16.20;99.90;;;;;;5069427;28;20033;-57
2023/10/03 02:51:59;;;;;;;1.20;0.80;;;15.50;99.90;;;;;;5070599;28;20440;-58
2023/10/03 02:54:25;;;;;;;;;;;16.00;99.90;;;;;;5070901;28;20028;-64
2023/10/03 02:56:51;;;;;;;1.02;0.70;;;17.00;99.90;;;;;;5070549;28;20285;-51
2023/10/03 02:59:17;;;;;;;0.88;0.70;;;15.90;99.90;;;;;;5070625;28;20024;-55
2023/10/03 03:01:44;;;;;;;1.20;0.70;;;15.70;99.90;;;;;;5070598;28;20059;-58
2023/10/03 03:04:12;;;;;;;0.90;0.70;;;14.00;99.90;;;;;;5070550;28;20036;-53
2023/10/03 03:06:39;;;;;;;1.95;1.00;;;15.60;99.90;;;;;;5069183;28;20119;-54
2023/10/03 03:09:07;;;;;;;2.28;0.98;;;16.50;99.90;;;;;;5070465;28;20047;-58
2023/10/03 03:11:33;;;;;;;2.13;0.80;;;15.40;99.90;;;;;;5070377;28;20035;-50
2023/10/03 03:13:58;;;;;;;1.80;0.93;;;15.30;99.90;;;;;;5070725;28;20036;-47
2023/10/03 03:16:24;;;;;;;2.22;1.08;;;15.20;99.90;;;;;;5070468;28;20023;-45
2023/10/03 03:18:52;;;;;;;2.88;1.20;;;15.20;99.90;;;;;;5070393;28;20025;-52
2023/10/03 03:21:20;;;;;;;1.52;0.85;;;13.60;99.90;;;;;;5070247;28;20444;-55
2023/10/03 03:23:56;;;;;;;2.15;1.05;;;15.00;99.90;;;;;;5070297;28;20604;-50
2023/10/03 03:26:22;;;;;;;2.03;1.00;;;15.00;99.90;;;;;;5102721;28;20394;-49
2023/10/03 03:28:49;;;;;;;1.85;1.00;;;14.90;99.90;;;;;;5070085;28;20486;-47
2023/10/03 03:31:22;;;;;;;3.17;1.10;;;14.80;99.90;;;;;;5070161;28;20012;-50
2023/10/03 03:33:55;;;;;;;3.92;1.40;;;14.80;99.90;;;;;;5070177;28;20028;-55
2023/10/03 03:36:23;;;;;;;1.20;0.82;;;14.80;99.90;;;;;;5069982;28;20614;-49
2023/10/03 03:38:51;;;;;;;4.72;1.20;;;15.60;99.90;;;;;;5070050;28;20017;-50
2023/10/03 03:41:18;;;;;;;1.52;1.00;;;14.80;99.90;;;;;;5069939;28;20111;-55
2023/10/03 03:43:44;;;;;;;1.83;0.82;;;14.80;99.90;;;;;;5068704;28;20408;-55
2023/10/03 03:46:10;;;;;;;1.98;0.82;;;14.80;99.90;;;;;;5070658;28;20530;-61
2023/10/03 03:48:36;;;;;;;1.75;1.00;;;14.80;99.90;;;;;;5073992;28;20036;-50
2023/10/03 03:51:06;;;;;;;2.47;0.70;;;16.10;99.90;;;;;;5073748;28;20503;-54
2023/10/03 03:53:32;;;;;;;1.58;0.82;;;14.80;99.90;;;;;;5073925;28;20046;-54
2023/10/03 03:56:00;;;;;;;2.20;0.93;;;13.70;99.90;;;;;;5073858;28;20041;-55
2023/10/03 03:58:26;;;;;;;1.15;0.80;;;14.80;99.90;;;;;;5073695;28;20048;-52
2023/10/03 04:00:52;;;;;;;1.65;0.85;;;14.80;99.90;;;;;;5073845;28;20477;-56
2023/10/03 04:03:19;;;;;;;2.75;1.10;;;14.80;99.90;;;;;;5073587;28;20451;-54
2023/10/03 04:05:46;;;;;;;1.67;0.93;;;14.80;99.90;;;;;;5059708;28;20028;-52
2023/10/03 04:08:12;;;;;;;1.40;0.88;;;14.80;99.90;;;;;;5073539;28;20128;-48
2023/10/03 04:10:38;;;;;;;1.38;1.00;;;14.80;99.90;;;;;;5073444;28;20108;-49
2023/10/03 04:13:10;;;;;;;1.70;1.10;;;14.80;99.90;;;;;;5073528;28;20107;-52
2023/10/03 04:15:39;;;;;;;2.05;0.93;;;14.80;99.90;;;;;;5073351;28;20381;-56
2023/10/03 04:18:06;;;;;;;1.90;1.08;;;16.20;99.90;;;;;;5073356;28;20500;-54
2023/10/03 04:20:35;;;;;;;4.70;1.10;;;14.80;99.90;;;;;;5073147;28;20025;-53
2023/10/03 04:23:05;;;;;;;2.63;1.20;;;15.80;99.90;;;;;;5073363;28;20052;-54
2023/10/03 04:25:32;;;;;;;3.42;1.10;;;14.70;99.90;;;;;;5073346;28;20096;-51
2023/10/03 04:27:58;;;;;;;1.77;1.15;;;14.60;99.90;;;;;;5073095;28;20112;-58
2023/10/03 04:30:25;;;;;;;1.80;1.20;;;14.60;99.90;;;;;;5073111;28;20127;-57
2023/10/03 04:32:52;;;;;;;1.33;0.98;;;14.00;99.90;;;;;;5072850;28;20059;-52
2023/10/03 04:35:19;;;;;;;2.80;1.27;;;14.60;99.90;;;;;;5073245;28;20095;-52
2023/10/03 04:37:52;;;;;;;2.65;1.10;;;14.70;99.90;;;;;;5073064;28;20024;-51
2023/10/03 04:40:22;;;;;;;1.60;1.00;;;16.30;99.90;;;;;;5072869;28;20390;-47
2023/10/03 04:42:49;;;;;;;1.55;0.90;;;14.70;99.90;;;;;;5072873;28;20375;-55
2023/10/03 04:45:15;;;;;;;1.85;0.90;;;14.60;99.90;;;;;;5072766;28;20040;-50
2023/10/03 04:47:41;;;;;;;2.30;1.10;;;15.80;99.90;;;;;;5072439;28;20032;-49
2023/10/03 04:50:11;;;;;;;1.85;0.98;;;14.50;99.90;;;;;;5072612;28;20477;-48
2023/10/03 04:52:41;;;;;;;1.90;1.10;;;14.60;99.90;;;;;;5072824;28;20029;-55
2023/10/03 04:55:07;;;;;;;3.63;1.10;;;14.50;99.90;;;;;;5072835;28;20029;-47
2023/10/03 04:57:33;;;;;;;3.33;1.40;;;14.60;99.90;;;;;;5071734;28;20031;-48
2023/10/03 04:59:59;;;;;;;2.28;1.13;;;14.60;99.90;;;;;;5072111;28;20024;-49
2023/10/03 05:02:28;;;;;;;1.70;1.00;;;14.50;99.90;;;;;;5072592;28;20078;-43
2023/10/03 05:04:57;;;;;;;3.85;1.15;;;14.50;99.90;;;;;;5105371;28;20424;-43
2023/10/03 05:07:26;;;;;;;2.47;1.25;;;14.50;99.90;;;;;;5072663;28;20044;-50
2023/10/03 05:09:51;;;;;;;3.65;1.08;;;14.50;99.90;;;;;;5072568;28;20044;-48
2023/10/03 05:12:20;;;;;;;3.00;1.00;;;14.50;99.90;;;;;;5072267;28;20052;-55
2023/10/03 05:14:48;;;;;;;1.40;0.90;;;14.50;99.90;;;;;;5072790;28;20020;-54
2023/10/03 05:17:15;;;;;;;1.80;0.90;;;14.50;99.90;;;;;;5072515;28;20086;-51
2023/10/03 05:19:41;;;;;;;2.13;1.13;;;14.50;99.90;;;;;;5072411;28;20393;-51
2023/10/03 05:22:08;;;;;;;2.13;0.95;;;14.40;99.90;;;;;;5072309;28;20055;-56
2023/10/03 05:24:35;;;;;;;1.52;0.80;;;14.40;99.90;;;;;;5072449;28;20032;-54
2023/10/03 05:27:00;;;;;;;3.75;1.13;;;14.40;99.90;;;;;;5072187;28;20025;-55
2023/10/03 05:29:29;;;;;;;2.90;1.13;;;14.40;99.90;;;;;;5072054;28;20081;-49
2023/10/03 05:31:55;;;;;;;4.05;1.00;;;15.00;99.90;;;;;;5071927;28;20098;-50
2023/10/03 05:34:22;;;;;;;1.98;1.08;;;15.60;99.90;;;;;;5068639;28;20029;-59
2023/10/03 05:36:49;;;;;;;2.67;1.30;;;14.40;99.90;;;;;;5057966;28;20012;-58
2023/10/03 05:39:18;;;;;;;1.98;1.00;;;14.30;99.90;;;;;;5066484;28;20604;-56
2023/10/03 05:41:44;;;;;;;;;;;14.30;99.90;;;;;;5067047;28;20012;-51
2023/10/03 05:44:13;;;;;;;1.55;0.90;;;14.40;99.90;;;;;;5067666;28;19935;-44
2023/10/03 05:46:45;;;;;;;2.30;0.85;;;14.40;99.90;;;;;;5065168;28;20028;-46
2023/10/03 05:49:10;;;;;;;1.75;1.00;;;14.30;99.90;;;;;;5068003;28;20039;-50
2023/10/03 05:51:36;;;;;;;1.33;0.82;;;14.40;99.90;;;;;;5064235;28;20029;-52
2023/10/03 05:54:05;;;;;;;1.52;1.00;;;14.40;99.90;;;;;;5067703;28;20028;-49
2023/10/03 05:56:31;;;;;;;1.55;0.80;;;14.30;99.90;;;;;;5063825;28;20037;-47
2023/10/03 05:58:59;;;;;;;2.70;1.05;;;14.40;99.90;;;;;;5071472;28;20052;-44
2023/10/03 06:01:25;;;;;;;1.60;0.90;;;14.40;99.90;;;;;;5071442;28;20028;-44
2023/10/03 06:03:50;;;;;;;1.10;0.73;;;14.30;99.90;;;;;;5071472;28;20023;-53
2023/10/03 06:06:16;;;;;;;5.90;1.08;;;14.40;99.90;;;;;;5071466;28;20465;-60
2023/10/03 06:08:41;;;;;;;2.97;1.02;;;14.30;99.90;;;;;;5069612;28;20111;-51
2023/10/03 06:11:07;;;;;;;1.63;1.00;;;14.40;99.90;;;;;;5071468;28;20020;-50
2023/10/03 06:13:33;;;;;;;4.97;1.35;;;14.30;99.90;;;;;;5071280;28;20055;-52
2023/10/03 06:15:59;;;;;;;1.58;0.82;;;14.20;99.90;;;;;;5071307;28;20016;-56
2023/10/03 06:18:27;;;;;;;1.45;0.93;;;12.90;99.90;;;;;;5071354;28;20029;-51
2023/10/03 06:20:53;;;;;;;1.33;0.70;;;13.60;99.90;;;;;;5071171;28;20021;-51
2023/10/03 06:23:18;;;;;;;1.40;0.80;;;14.20;99.90;;;;;;5071139;28;20047;-52
2023/10/03 06:25:44;;;;;;;2.85;0.90;;;14.20;99.90;;;;;;5071045;28;20473;-55
2023/10/03 06:28:10;;;;;;;2.25;1.00;;;14.20;99.90;;;;;;5071107;28;20054;-47
2023/10/03 06:30:38;;;;;;;1.52;0.80;;;14.20;99.90;;;;;;5070552;28;20028;-52
2023/10/03 06:33:05;;;;;;;1.73;1.10;;;14.20;99.90;;;;;;5071025;28;20039;-54
2023/10/03 06:35:32;;;;;;;2.25;0.93;;;14.30;99.90;;;;;;5070881;28;20029;-45
2023/10/03 06:37:58;;;;;;;2.25;0.90;;;14.30;99.90;;;;;;5070478;28;20035;-54
2023/10/03 06:40:23;;;;;;;2.83;1.55;;;14.30;99.90;;;;;;5070434;28;20032;-59
2023/10/03 06:42:49;;;;;;;3.03;1.30;;;14.20;99.90;;;;;;5070523;28;20020;-49
2023/10/03 06:45:15;;;;;;;4.30;1.33;;;14.30;99.90;;;;;;5070695;28;20024;-46
2023/10/03 06:47:40;;;;;;;3.53;1.50;;;14.20;99.90;;;;;;5070543;28;20032;-50
2023/10/03 06:50:07;;;;;;;2.92;1.27;;;13.00;99.90;;;;;;5070618;28;20434;-54
2023/10/03 06:52:34;;;;;;;3.65;1.27;;;14.20;99.90;;;;;;5070322;28;20094;-50
2023/10/03 06:55:03;;;;;;;2.70;1.40;;;14.10;99.90;;;;;;5070518;28;20481;-44
2023/10/03 06:57:28;;;;;;;3.38;1.75;;;14.10;99.90;;;;;;5070826;28;20068;-54
2023/10/03 06:59:54;;;;;;;4.22;1.33;;;14.10;99.90;;;;;;5069904;28;20064;-49
2023/10/03 07:02:20;;;;;;;3.30;1.40;;;14.00;99.90;;;;;;5069040;28;20055;-52
2023/10/03 07:04:47;;;;;;;2.92;1.30;;;14.00;99.90;;;;;;5069459;28;20031;-51
2023/10/03 07:07:12;;;;;;;2.47;1.15;;;13.90;99.90;;;;;;5067989;28;20028;-49
2023/10/03 07:09:39;;;;;;;4.57;1.55;;;13.90;99.90;;;;;;5069376;28;20035;-46
2023/10/03 07:12:08;;;;;;;3.30;1.75;;;13.90;99.90;;;;;;5068246;28;20082;-53
2023/10/03 07:14:35;;;;;;;2.08;0.90;;;13.90;99.90;;;;;;5069421;28;20054;-49
2023/10/03 07:17:03;;;;;;;2.35;1.02;;;13.80;99.90;;;;;;5068602;28;20033;-50
2023/10/03 07:19:32;;;;;;;3.10;1.23;;;13.80;99.90;;;;;;5056349;28;20028;-55
2023/10/03 07:21:57;;;;;;;2.20;0.90;;;13.80;99.90;;;;;;5071385;28;20032;-51
2023/10/03 07:24:28;;;;;;;3.05;1.10;;;13.70;99.90;;;;;;5067612;28;20021;-49
2023/10/03 07:26:54;;;;;;;3.08;1.25;;;;;;;;;;5069021;28;20392;-50
2023/10/03 07:29:21;;;;;;;2.97;1.15;;;13.80;99.90;;;;;;5064677;28;20474;-55
2023/10/03 07:31:47;;;;;;;2.50;1.10;;;13.60;99.90;;;;;;5394481;22;20080;-43
2023/10/03 07:34:17;;;;;;;2.08;1.00;;;13.80;99.90;;;;;;5056615;28;20498;-55
2023/10/03 07:36:43;;;;;;;3.10;1.20;;;13.80;99.90;;;;;;5059450;28;20025;-47
2023/10/03 07:39:09;;;;;;;4.90;1.52;;;13.90;99.90;;;;;;5053486;28;20487;-56
2023/10/03 07:41:34;;;;;;;3.75;1.52;;;14.00;99.90;;;;;;5056723;28;20037;-43
2023/10/03 07:44:01;;;;;;;3.22;1.40;;;14.00;99.90;;;;;;5073746;28;20582;-44
2023/10/03 07:46:27;;;;;;;3.17;1.10;;;14.20;99.90;;;;;;5073503;28;20024;-52
2023/10/03 07:48:53;;;;;;;1.98;1.10;;;14.20;99.90;;;;;;5066906;28;20036;-49
2023/10/03 07:51:20;;;;;;;3.95;1.40;;;14.40;99.90;;;;;;5053995;28;20111;-50
2023/10/03 07:53:47;;;;;;;3.38;1.13;;;14.60;99.90;;;;;;5053750;28;20024;-45
2023/10/03 07:56:30;;;;;;;4.40;1.10;;;14.80;99.90;;;;;;5053777;28;20107;-47
2023/10/03 07:59:01;;;;;;;4.57;1.17;;;14.70;99.90;;;;;;5072787;28;20066;-49
2023/10/03 08:01:27;;;;;;;2.33;1.17;;;15.40;99.90;;;;;;5072702;28;20036;-51
2023/10/03 08:03:57;;;;;;;2.55;1.23;;;16.20;99.90;;;;;;5053056;28;20016;-41
2023/10/03 08:06:24;;;;;;;3.10;1.42;;;15.40;99.90;;;;;;5048747;28;20127;-59
2023/10/03 08:08:55;;;;;;;3.25;1.00;;;15.60;99.90;;;;;;5067453;28;20101;-51
2023/10/03 08:11:32;;;;;;;2.47;1.25;;;15.70;99.90;;;;;;5053549;28;20024;-51
2023/10/03 08:14:00;;;;;;;2.58;1.17;;;16.20;99.90;;;;;;5053645;28;20044;-49
2023/10/03 08:16:34;;;;;;;2.70;1.33;;;16.30;99.90;;;;;;5053493;28;20025;-55
2023/10/03 08:19:01;;;;;;;3.08;1.17;;;16.50;99.90;;;;;;5059729;28;20029;-49
2023/10/03 08:21:30;;;;;;;4.35;1.52;;;16.40;99.90;;;;;;5052965;28;20028;-51
2023/10/03 08:23:57;;;;;;;2.63;1.10;;;16.90;99.90;;;;;;5066051;28;20035;-42
2023/10/03 08:26:25;;;;;;;1.77;1.10;;;17.10;99.90;;;;;;5072661;28;20055;-50
2023/10/03 08:29:04;;;;;;;1.98;1.02;;;17.30;99.90;;;;;;5066431;28;20035;-50
2023/10/03 08:31:33;;;;;;;3.47;1.38;;;17.40;99.90;;;;;;5061414;28;20075;-44
2023/10/03 08:33:59;;;;;;;2.92;0.95;;;17.80;99.90;;;;;;5069860;28;20081;-47
2023/10/03 08:36:30;;;;;;;2.92;1.13;;;17.90;99.90;;;;;;5069402;28;20480;-55
2023/10/03 08:39:12;;;;;;;3.63;1.00;;;17.90;99.90;;;;;;5053094;28;20124;-57
2023/10/03 08:41:57;;;;;;;2.28;1.10;;;18.00;99.90;;;;;;5063224;28;20047;-47
2023/10/03 08:44:24;;;;;;;5.18;0.93;;;18.70;99.90;;;;;;5059948;28;20078;-42
2023/10/03 08:46:55;;;;;;;3.15;1.10;;;18.60;99.90;;;;;;5067765;28;20435;-52
2023/10/03 08:49:26;;;;;;;3.00;1.08;;;18.80;99.90;;;;;;5061670;28;20039;-51
2023/10/03 08:51:52;;;;;;;2.97;1.10;;;18.80;99.90;;;;;;5065134;28;20078;-43
2023/10/03 08:54:18;;;;;;;1.90;1.08;;;19.10;99.90;;;;;;5064528;28;20040;-55
2023/10/03 08:56:44;;;;;;;3.97;1.10;;;19.40;99.90;;;;;;5072378;28;20012;-49
2023/10/03 08:59:10;;;;;;;2.00;1.02;;;19.80;99.90;;;;;;5072421;28;20537;-46
2023/10/03 09:01:43;;;;;;;2.38;1.10;;;20.20;99.90;;;;;;5059484;28;20021;-51
2023/10/03 09:04:18;;;;;;;2.13;0.98;;;20.50;99.90;;;;;;5054434;28;20421;-44
2023/10/03 09:06:45;;;;;;;2.15;0.88;;;21.10;99.90;;;;;;5071972;28;20055;-47
2023/10/03 09:09:16;;;;;;;2.90;1.35;;;21.70;99.90;;;;;;5072335;28;20627;-47
2023/10/03 09:11:44;;;;;;;3.28;1.48;;;22.00;99.90;;;;;;5071950;28;20081;-49
2023/10/03 09:14:19;;;;;;;3.40;1.00;;;22.30;99.90;;;;;;5072123;28;20096;-40
2023/10/03 09:16:50;;;;;;;2.50;1.10;;;22.00;99.90;;;;;;5071853;28;20027;-48
2023/10/03 09:19:26;;;;;;;2.08;1.00;;;22.20;99.90;;;;;;5071987;28;20116;-47
2023/10/03 09:21:52;;;;;;;3.10;1.00;;;21.70;99.90;;;;;;5071364;28;20021;-52
2023/10/03 09:24:22;;;;;;;2.20;1.00;;;21.80;99.90;;;;;;5071491;28;20119;-53
2023/10/03 09:27:02;;;;;;;3.55;1.13;;;22.20;99.90;;;;;;5071680;28;20026;-48
2023/10/03 09:29:30;;;;;;;2.95;1.08;;;22.50;99.90;;;;;;5059119;28;20036;-46
2023/10/03 09:32:12;;;;;;;3.40;0.85;;;23.30;99.90;;;;;;5071438;28;20053;-52
2023/10/03 09:34:40;;;;;;;1.80;0.93;;;23.30;99.90;;;;;;5059895;28;20081;-52
2023/10/03 09:37:06;;;;;;;3.40;0.90;;;23.80;99.90;;;;;;5071230;28;20050;-48
2023/10/03 09:39:39;;;;;;;3.10;0.90;;;23.20;99.90;;;;;;5069344;28;20028;-47
2023/10/03 09:42:15;;;;;;;1.77;0.80;;;23.30;99.90;;;;;;5051831;28;20021;-43
2023/10/03 09:44:48;;;;;;;2.22;0.90;;;24.00;99.90;;;;;;5050883;28;20112;-41
2023/10/03 09:47:18;;;;;;;2.35;0.70;;;23.10;99.90;;;;;;5051844;28;20130;-44
2023/10/03 09:49:47;;;;;;;1.77;0.73;;;23.70;99.90;;;;;;5051445;28;20731;-44
2023/10/03 09:52:22;;;;;;;2.10;1.05;;;23.60;99.90;;;;;;5051526;28;20025;-55
2023/10/03 09:54:53;;;;;;;2.88;0.85;;;24.00;99.90;;;;;;5051445;28;20112;-44
2023/10/03 09:57:21;;;;;;;1.98;0.68;;;23.90;99.90;;;;;;5051362;28;20100;-48
2023/10/03 09:59:48;;;;;;;4.78;1.27;;;24.30;99.90;;;;;;5054889;28;20028;-48
2023/10/03 10:02:16;;;;;;;2.65;1.00;;;25.10;99.90;;;;;;5064526;28;20029;-49
2023/10/03 10:04:44;;;;;;;3.58;1.27;;;24.60;99.60;;;;;;5064405;28;20024;-47
2023/10/03 10:07:27;;;;;;;2.35;1.00;;;23.20;99.90;;;;;;5054659;28;20119;-44
2023/10/03 10:10:07;;;;;;;2.20;0.93;;;22.50;99.90;;;;;;5057098;28;20032;-53
2023/10/03 10:12:37;;;;;;;3.63;0.90;;;22.00;99.90;;;;;;5052568;28;20115;-48
2023/10/03 10:15:14;;;;;;;4.90;1.23;;;21.40;99.90;;;;;;5063783;28;20108;-51
2023/10/03 10:17:45;;;;;;;3.17;1.08;;;20.50;99.90;;;;;;5050743;28;20024;-52
2023/10/03 10:20:38;;;;;;;4.68;1.50;;;20.60;99.90;;;;;;5064868;28;20029;-47
2023/10/03 10:23:06;;;;;;;2.42;1.10;;;20.50;99.90;;;;;;5059401;28;20492;-58
2023/10/03 10:25:42;;;;;;;4.22;1.40;;;20.50;99.90;;;;;;5070575;28;20025;-55
2023/10/03 10:28:17;;;;;;;3.95;1.20;;;20.60;99.90;;;;;;5070684;28;20033;-44
2023/10/03 10:31:21;;;;;;;3.50;1.35;;;20.70;99.90;;;;;;5070834;28;20020;-45
2023/10/03 10:33:49;;;;;;;3.20;1.10;;;21.30;99.90;;;;;;5070487;28;20514;-49
2023/10/03 10:36:18;;;;;;;3.05;1.08;;;22.90;99.90;;;;;;5061908;28;20017;-59
2023/10/03 10:38:44;;;;;;;2.63;1.13;;;24.20;99.90;;;;;;5064291;28;20470;-50
2023/10/03 10:41:22;;;;;;;5.63;1.33;;;24.50;99.90;;;;;;5066930;28;20115;-50
2023/10/03 10:44:09;;;;;;;3.72;1.30;;;24.60;99.90;;;;;;5070272;28;20118;-48
2023/10/03 10:46:35;;;;;;;3.10;1.40;;;24.80;99.90;;;;;;5040609;28;20024;-57
2023/10/03 10:49:06;;;;;;;3.55;1.33;;;24.70;98.80;;;;;;5070491;28;20139;-54
2023/10/03 10:51:35;;;;;;;3.22;0.98;;;24.70;99.20;;;;;;5070011;28;20021;-46
2023/10/03 10:54:02;;;;;;;3.75;1.27;;;24.00;99.10;;;;;;5070168;28;20032;-55
2023/10/03 10:56:28;;;;;;;4.30;1.40;;;23.70;99.90;;;;;;5065856;28;20537;-54
2023/10/03 10:59:04;;;;;;;2.72;1.08;;;23.70;99.60;;;;;;5070132;28;20111;-45
2023/10/03 11:01:35;;;;;;;3.88;1.40;;;23.80;99.90;;;;;;5069815;28;20032;-49
2023/10/03 11:04:02;;;;;;;4.53;1.83;;;24.50;99.90;;;;;;5070051;28;20128;-53
2023/10/03 11:06:28;;;;;;;2.95;0.93;;;24.60;99.90;;;;;;5069975;28;20041;-48
2023/10/03 11:08:54;;;;;;;4.00;1.48;;;24.80;99.20;;;;;;5055781;28;20476;-47
2023/10/03 11:11:20;;;;;;;3.92;1.00;;;25.00;98.20;;;;;;5054928;28;20036;-43
2023/10/03 11:13:48;;;;;;;4.25;1.10;;;24.80;99.00;;;;;;5070007;28;20025;-53
2023/10/03 11:16:25;;;;;;;2.65;0.82;;;24.70;98.60;;;;;;5069756;28;20021;-63
2023/10/03 11:18:52;;;;;;;2.22;0.88;;;24.20;98.00;;;;;;5069839;28;20020;-53
2023/10/03 11:21:18;;;;;;;3.15;1.17;;;24.20;99.40;;;;;;5069692;28;20032;-57
2023/10/03 11:24:13;;;;;;;4.43;1.25;;;24.40;98.80;;;;;;5069781;28;20091;-53
2023/10/03 11:26:41;;;;;;;2.95;1.20;;;24.30;98.10;;;;;;5066148;28;20036;-39
2023/10/03 11:29:07;;;;;;;2.75;1.13;;;23.90;97.90;;;;;;5069653;28;20086;-39
2023/10/03 11:31:40;;;;;;;5.38;1.00;;;23.70;98.70;;;;;;5069224;28;20016;-40
2023/10/03 11:34:07;;;;;;;2.53;0.90;;;24.00;99.10;;;;;;5069672;28;20423;-49
2023/10/03 11:36:43;;;;;;;3.00;1.20;;;24.40;99.30;;;;;;5056485;28;20021;-49
2023/10/03 11:39:13;;;;;;;3.13;1.05;;;24.90;97.80;;;;;;5060846;28;20052;-44
2023/10/03 11:41:39;;;;;;;3.15;0.90;;;25.20;96.40;;;;;;5059379;28;20036;-56
2023/10/03 11:44:19;;;;;;;3.92;0.95;;;24.60;95.60;;;;;;5053867;28;20108;-38
2023/10/03 11:46:46;;;;;;;2.13;0.90;;;23.80;97.10;;;;;;5049843;28;20090;-58
2023/10/03 11:49:13;;;;;;;1.77;0.90;;;24.20;97.10;;;;;;5050261;28;20029;-47
2023/10/03 11:51:42;;;;;;;1.63;0.90;;;24.30;98.10;;;;;;5069383;28;20091;-45
2023/10/03 11:54:08;;;;;;;0.85;0.68;;;24.80;97.50;;;;;;5069525;28;20085;-59
2023/10/03 11:56:44;;;;;;;5.45;1.17;;;24.20;97.40;;;;;;5069474;28;20025;-46
2023/10/03 11:59:14;;;;;;;2.83;1.00;;;24.50;97.80;;;;;;5053189;28;20066;-53
2023/10/03 12:01:42;;;;;;;2.80;0.85;;;25.30;97.60;;;;;;5051099;28;20029;-47
2023/10/03 12:04:08;;;;;;;1.35;1.00;;;26.10;97.40;;;;;;5050671;28;20017;-53
2023/10/03 12:06:34;;;;;;;2.92;1.20;;;25.70;95.80;;;;;;5069242;28;20036;-50
2023/10/03 12:08:59;;;;;;;4.13;1.20;;;25.50;96.10;;;;;;5072522;28;20042;-44
2023/10/03 12:11:25;;;;;;;4.32;1.20;;;25.30;95.70;;;;;;5068629;28;20628;-44
2023/10/03 12:13:50;;;;;;;2.42;1.20;;;24.90;96.10;;;;;;5064286;28;20101;-51
2023/10/03 12:16:17;;;;;;;3.95;0.98;;;24.10;97.30;;;;;;5072925;28;20016;-53
2023/10/03 12:18:43;;;;;;;5.22;1.08;;;24.10;97.20;;;;;;5073080;28;20020;-46
2023/10/03 12:21:09;;;;;;;1.58;0.75;;;23.90;96.70;;;;;;5072799;28;20481;-53
2023/10/03 12:23:36;;;;;;;2.85;1.02;;;23.70;97.90;;;;;;5069029;28;20053;-46
2023/10/03 12:26:01;;;;;;;2.60;1.20;;;23.80;98.50;;;;;;5064011;28;20028;-52
2023/10/03 12:28:27;;;;;;;2.42;0.88;;;23.80;97.60;;;;;;5060879;28;20052;-46
2023/10/03 12:30:53;;;;;;;1.83;0.80;;;23.60;97.30;;;;;;5052468;28;20681;-46
2023/10/03 12:33:19;;;;;;;2.35;1.00;;;23.30;96.80;;;;;;5065316;28;20052;-53
2023/10/03 12:35:48;;;;;;;1.95;0.90;;;22.90;97.40;;;;;;5063310;28;20059;-49
2023/10/03 12:38:15;;;;;;;2.40;0.98;;;22.50;98.10;;;;;;5056000;28;20028;-52
2023/10/03 12:40:42;;;;;;;2.03;0.77;;;22.00;98.10;;;;;;5048382;28;20561;-51
2023/10/03 12:43:10;;;;;;;1.85;0.85;;;21.20;97.80;;;;;;5053512;28;20501;-54
2023/10/03 12:45:35;;;;;;;2.08;0.77;;;20.70;98.80;;;;;;5064161;28;20044;-49
2023/10/03 12:48:01;;;;;;;3.25;1.15;;;20.20;98.90;;;;;;5053337;28;20611;-53
2023/10/03 12:50:27;;;;;;;2.63;0.90;;;20.30;99.90;;;;;;5068219;28;20134;-40
2023/10/03 12:53:01;;;;;;;2.17;0.70;;;20.70;99.90;;;;;;5056051;28;20017;-55
2023/10/03 12:55:28;;;;;;;2.00;0.70;;;21.20;99.90;;;;;;5055231;28;20323;-58